Time;durP1;ratioP1;P1;durP2;ratioP2;P2;SDS_P1;SDS_P2;PMS_P1;PMS_P2;Temp;Humidity;BMP_temperature;BMP_pressure;BME280_temperature;BME280_humidity;BME280_pressure;Samples;Min_cycle;Max_cycle;Signal;HPM_P1;HPM_P2
2022/04/18 00:02:07;;;;;;;49.90;22.52;;;;;;;5.10;63.06;101234.85;1744605;82;21523;-69
2022/04/18 00:04:33;;;;;;;50.45;21.17;;;;;;;5.00;63.18;101231.17;1744542;82;20999;-70
2022/04/18 00:07:01;;;;;;;36.03;19.45;;;;;;;4.91;63.28;101229.23;1735364;82;21028;-69
2022/04/18 00:09:29;;;;;;;45.70;21.70;;;;;;;4.86;63.40;101236.64;1723318;81;21076;-69
2022/04/18 00:11:56;;;;;;;54.13;22.67;;;;;;;4.79;63.50;101228.32;1727290;82;21073;-69
2022/04/18 00:14:22;;;;;;;57.03;24.60;;;;;;;4.73;63.61;101225.29;1739545;81;21153;-69
2022/04/18 00:16:48;;;;;;;52.73;20.88;;;;;;;4.65;63.74;101222.35;1709583;83;21036;-70
2022/04/18 00:19:14;;;;;;;53.48;21.68;;;;;;;4.60;63.84;101224.50;1709149;83;21045;-69
2022/04/18 00:21:40;;;;;;;66.60;23.95;;;;;;;4.52;63.97;101227.70;1711857;83;20962;-69
2022/04/18 00:24:06;;;;;;;64.03;25.02;;;;;;;4.44;64.11;101223.44;1711434;82;20998;-70
2022/04/18 00:26:32;;;;;;;36.28;17.65;;;;;;;4.34;64.23;101226.37;1730868;82;21126;-70
2022/04/18 00:28:58;;;;;;;51.65;22.85;;;;;;;4.24;64.35;101222.23;1713933;82;20991;-70
2022/04/18 00:31:24;;;;;;;45.95;22.67;;;;;;;4.18;64.49;101217.88;1706581;84;21074;-70
2022/04/18 00:33:50;;;;;;;41.37;19.35;;;;;;;4.08;64.59;101221.65;1706527;83;21654;-70
2022/04/18 00:36:16;;;;;;;46.08;21.50;;;;;;;4.01;64.75;101221.20;1706846;84;21011;-70
2022/04/18 00:38:44;;;;;;;49.65;20.77;;;;;;;3.94;64.88;101224.41;1706520;84;21971;-70
2022/04/18 00:41:11;;;;;;;49.58;22.17;;;;;;;3.87;64.99;101223.16;1685211;84;21466;-70
2022/04/18 00:43:41;;;;;;;56.05;22.15;;;;;;;3.83;65.14;101222.99;1726957;81;21047;-70
2022/04/18 00:46:09;;;;;;;69.85;23.32;;;;;;;3.80;65.26;101221.89;1724453;82;21007;-70
2022/04/18 00:48:35;;;;;;;53.68;20.90;;;;;;;3.78;65.39;101215.39;1709676;82;21454;-70
2022/04/18 00:51:04;;;;;;;56.25;20.95;;;;;;;3.77;65.50;101212.84;1703556;84;21151;-69
2022/04/18 00:53:31;;;;;;;64.30;23.52;;;;;;;3.74;65.61;101214.38;1704400;83;21007;-70
2022/04/18 00:55:58;;;;;;;64.35;24.43;;;;;;;3.67;65.71;101211.80;1706814;83;21071;-70
2022/04/18 00:58:24;;;;;;;78.90;25.85;;;;;;;3.61;65.82;101209.59;1707047;83;21939;-70
2022/04/18 01:00:50;;;;;;;85.45;26.23;;;;;;;3.57;65.93;101205.47;1711902;83;21092;-70
2022/04/18 01:03:18;;;;;;;71.47;25.23;;;;;;;3.53;66.07;101207.00;1684938;84;21225;-70
2022/04/18 01:05:46;;;;;;;71.80;24.43;;;;;;;3.49;66.16;101198.94;1722351;82;21025;-70
2022/04/18 01:08:12;;;;;;;76.50;23.62;;;;;;;3.49;66.25;101199.41;1684807;83;21062;-70
2022/04/18 01:10:38;;;;;;;53.30;20.45;;;;;;;3.47;66.35;101192.94;1657905;85;21018;-70
2022/04/18 01:13:04;;;;;;;52.40;21.97;;;;;;;3.46;66.47;101193.02;1664806;86;20995;-70
2022/04/18 01:15:30;;;;;;;50.58;19.92;;;;;;;3.46;66.53;101191.23;1720470;82;21138;-70
2022/04/18 01:17:57;;;;;;;51.77;22.40;;;;;;;3.46;66.58;101191.23;1728798;83;21013;-70
2022/04/18 01:20:25;;;;;;;46.45;21.30;;;;;;;3.44;66.64;101189.19;1731066;81;21680;-70
2022/04/18 01:22:52;;;;;;;51.60;22.67;;;;;;;3.40;66.69;101186.39;1727942;83;21078;-70
2022/04/18 01:30:56;;;;;;;54.95;22.60;;;;;;;3.18;66.84;101182.20;1663858;84;21088;-69
2022/04/18 01:33:22;;;;;;;54.55;24.10;;;;;;;3.11;66.89;101176.97;1723831;83;21287;-69
2022/04/18 01:35:48;;;;;;;43.00;21.68;;;;;;;3.04;66.92;101175.70;1693037;84;21558;-70
2022/04/18 01:38:14;;;;;;;50.52;21.23;;;;;;;2.98;66.98;101180.06;1723972;83;21675;-69
2022/04/18 01:40:40;;;;;;;38.53;18.40;;;;;;;2.92;67.02;101177.34;1692887;84;21932;-69
2022/04/18 01:43:06;;;;;;;29.87;14.45;;;;;;;2.89;67.05;101179.34;1723386;83;20998;-69
2022/04/18 01:45:33;;;;;;;31.90;15.38;;;;;;;2.85;67.09;101169.98;1685206;84;21071;-69
2022/04/18 01:47:59;;;;;;;26.97;14.30;;;;;;;2.84;67.11;101169.60;1718220;83;20981;-69
2022/04/18 01:50:25;;;;;;;31.85;17.12;;;;;;;2.81;67.12;101171.97;1693313;84;21074;-69
2022/04/18 01:52:51;;;;;;;32.58;16.25;;;;;;;2.80;67.15;101171.59;1723142;83;21061;-69
2022/04/18 01:55:17;;;;;;;26.70;13.40;;;;;;;2.78;67.18;101176.59;1718243;83;20903;-69
2022/04/18 01:57:43;;;;;;;29.80;14.25;;;;;;;2.76;67.18;101181.11;1692809;84;21086;-69
2022/04/18 02:00:10;;;;;;;28.87;13.25;;;;;;;2.76;67.21;101173.20;1717349;83;20898;-69
2022/04/18 02:02:36;;;;;;;29.72;12.07;;;;;;;2.78;67.21;101172.66;1715769;83;21032;-69
2022/04/18 02:05:07;;;;;;;25.32;12.15;;;;;;;2.80;67.19;101174.23;1716353;83;21314;-69
2022/04/18 02:07:33;;;;;;;21.27;10.85;;;;;;;2.80;67.18;101171.59;1665869;84;21042;-69
2022/04/18 02:09:59;;;;;;;22.87;10.30;;;;;;;2.81;67.14;101173.77;1723401;83;21010;-70
2022/04/18 02:12:25;;;;;;;30.88;11.43;;;;;;;2.83;67.08;101167.91;1692961;84;21078;-70
2022/04/18 02:14:51;;;;;;;16.42;9.50;;;;;;;2.83;67.02;101171.85;1722521;83;20981;-69
2022/04/18 02:17:17;;;;;;;16.45;8.65;;;;;;;2.82;66.93;101167.52;1726040;81;21202;-70
2022/04/18 02:19:44;;;;;;;20.70;8.85;;;;;;;2.81;66.85;101169.81;1724028;82;21059;-70
2022/04/18 02:22:12;;;;;;;19.70;8.83;;;;;;;2.78;66.74;101166.06;1742198;82;21549;-69
2022/04/18 02:24:39;;;;;;;18.98;8.43;;;;;;;2.75;66.65;101162.29;1707632;83;21027;-69
2022/04/18 02:27:06;;;;;;;16.48;8.73;;;;;;;2.71;66.55;101166.10;1700157;83;21101;-70
2022/04/18 02:29:33;;;;;;;21.20;8.60;;;;;;;2.68;66.46;101159.69;1700558;83;21155;-69
2022/04/18 02:34:44;;;;;;;16.90;7.75;;;;;;;2.61;66.26;101155.77;1724456;83;21502;-70
2022/04/18 02:37:10;;;;;;;17.62;8.83;;;;;;;2.58;66.18;101155.98;1726468;83;21542;-69
2022/04/18 02:39:37;;;;;;;18.35;7.50;;;;;;;2.53;66.08;101152.81;1726173;83;21042;-69
2022/04/18 02:42:04;;;;;;;15.93;7.28;;;;;;;2.46;66.00;101153.20;1735945;81;21506;-69
2022/04/18 02:44:30;;;;;;;14.50;7.87;;;;;;;2.42;65.94;101148.25;1734364;82;21098;-69
2022/04/18 02:46:56;;;;;;;15.98;8.40;;;;;;;2.37;65.88;101143.28;1752731;81;21053;-70
2022/04/18 02:49:22;;;;;;;19.87;8.70;;;;;;;2.33;65.81;101143.56;1719098;82;20985;-69
2022/04/18 02:51:48;;;;;;;15.23;8.08;;;;;;;2.29;65.76;101142.07;1718912;83;21478;-69
2022/04/18 02:54:14;;;;;;;14.80;8.48;;;;;;;2.22;65.70;101138.99;1713204;83;22144;-70
2022/04/18 02:56:40;;;;;;;18.27;9.63;;;;;;;2.17;65.65;101145.04;1699295;83;21488;-69
2022/04/18 02:59:06;;;;;;;20.65;8.90;;;;;;;2.09;65.63;101134.62;1700527;83;21035;-69
2022/04/18 03:01:32;;;;;;;12.80;8.18;;;;;;;2.05;65.61;101139.23;1703361;84;21007;-69
2022/04/18 03:03:58;;;;;;;16.75;7.80;;;;;;;2.00;65.56;101134.75;1724129;82;21040;-69
2022/04/18 03:06:24;;;;;;;13.78;8.53;;;;;;;1.96;65.54;101134.10;1724001;82;21101;-69
2022/04/18 03:08:50;;;;;;;14.70;8.10;;;;;;;1.92;65.53;101135.23;1724052;82;21015;-69
2022/04/18 03:11:16;;;;;;;18.55;8.18;;;;;;;1.87;65.50;101132.50;1724264;83;21074;-69
2022/04/18 03:13:46;;;;;;;20.12;7.83;;;;;;;1.84;65.47;101130.06;1724184;82;21527;-69
2022/04/18 03:16:13;;;;;;;18.15;7.62;;;;;;;1.81;65.46;101135.52;1709520;83;25537;-69
2022/04/18 03:18:39;;;;;;;15.20;7.83;;;;;;;1.78;65.47;101133.09;1715835;83;21209;-69
2022/04/18 03:21:05;;;;;;;16.50;8.05;;;;;;;1.74;65.44;101139.48;1715718;83;20989;-69
2022/04/18 03:23:31;;;;;;;10.40;6.37;;;;;;;1.70;65.42;101131.40;1717381;83;21030;-69
2022/04/18 03:25:57;;;;;;;20.32;9.93;;;;;;;1.67;65.41;101132.91;1723857;83;21553;-69
2022/04/18 03:28:25;;;;;;;22.25;10.65;;;;;;;1.63;65.39;101129.63;1723372;83;21470;-69
2022/04/18 03:30:52;;;;;;;27.67;11.73;;;;;;;1.57;65.39;101129.16;1714870;83;21214;-69
2022/04/18 03:33:19;;;;;;;22.05;11.55;;;;;;;1.52;65.39;101132.06;1717149;83;21511;-69
2022/04/18 03:41:15;;;;;;;29.07;15.20;;;;;;;1.37;65.45;101118.08;1715782;83;21071;-69
2022/04/18 03:43:42;;;;;;;36.10;16.07;;;;;;;1.34;65.47;101124.84;1674154;85;21135;-69
2022/04/18 03:46:08;;;;;;;31.12;16.62;;;;;;;1.30;65.50;101124.64;1673908;85;21019;-68
2022/04/18 03:48:34;;;;;;;34.58;16.80;;;;;;;1.26;65.51;101125.80;1673815;85;21030;-69
2022/04/18 03:51:00;;;;;;;31.05;15.58;;;;;;;1.23;65.54;101125.95;1674108;84;21035;-68
2022/04/18 03:53:26;;;;;;;28.25;14.63;;;;;;;1.21;65.58;101123.91;1674295;84;21015;-68
2022/04/18 03:55:52;;;;;;;33.58;15.72;;;;;;;1.19;65.61;101123.62;1706506;83;21570;-68
2022/04/18 03:58:18;;;;;;;33.80;16.48;;;;;;;1.19;65.64;101123.16;1703677;83;21523;-69
2022/04/18 04:00:45;;;;;;;29.90;14.78;;;;;;;1.17;65.67;101118.45;1692432;84;21078;-69
2022/04/18 04:03:11;;;;;;;22.22;13.65;;;;;;;1.18;65.70;101121.47;1718517;83;20987;-68
2022/04/18 04:05:38;;;;;;;27.80;15.70;;;;;;;1.18;65.75;101115.36;1734007;82;21013;-69
2022/04/18 04:08:05;;;;;;;24.05;11.80;;;;;;;1.18;65.77;101117.52;1734141;82;21466;-68
2022/04/18 04:10:32;;;;;;;19.82;13.50;;;;;;;1.19;65.82;101111.34;1733477;81;20998;-69
2022/04/18 04:12:58;;;;;;;21.97;11.85;;;;;;;1.22;65.85;101108.53;1732448;82;21006;-69
2022/04/18 04:15:25;;;;;;;21.75;10.93;;;;;;;1.25;65.87;101103.08;1722846;82;21020;-68
2022/04/18 04:17:51;;;;;;;19.40;10.65;;;;;;;1.31;65.89;101105.33;1719339;83;20913;-68
2022/04/18 04:20:17;;;;;;;24.92;13.62;;;;;;;1.37;65.91;101102.31;1719708;83;21132;-69
2022/04/18 04:22:44;;;;;;;20.50;11.78;;;;;;;1.44;65.92;101100.18;1737033;81;21002;-68
2022/04/18 04:25:10;;;;;;;20.77;12.20;;;;;;;1.59;66.00;101104.47;1749283;81;21060;-68
2022/04/18 04:27:36;;;;;;;18.23;10.50;;;;;;;1.92;66.07;101109.40;1752429;81;20958;-69
2022/04/18 04:30:02;;;;;;;22.30;12.28;;;;;;;2.32;66.05;101108.51;1701700;83;21471;-69
2022/04/18 04:32:28;;;;;;;19.42;11.68;;;;;;;2.66;65.91;101107.61;1729245;83;21236;-69
2022/04/18 04:34:54;;;;;;;15.28;9.05;;;;;;;2.87;65.78;101102.23;1694935;84;21085;-69
2022/04/18 04:37:20;;;;;;;18.77;9.88;;;;;;;2.98;65.68;101106.30;1695097;84;20998;-69
2022/04/18 04:39:46;;;;;;;16.27;9.65;;;;;;;3.14;65.59;101109.56;1694728;84;20934;-69
2022/04/18 04:42:12;;;;;;;21.00;9.90;;;;;;;3.46;65.60;101105.55;1694232;84;21102;-69
2022/04/18 04:44:38;;;;;;;17.57;9.95;;;;;;;4.00;65.71;101109.19;1696734;83;21141;-69
2022/04/18 04:47:05;;;;;;;17.12;10.13;;;;;;;4.20;65.54;101112.53;1694615;84;21090;-69
2022/04/18 04:49:31;;;;;;;16.87;9.78;;;;;;;4.38;65.44;101109.88;1665078;86;21074;-69
2022/04/18 04:51:57;;;;;;;18.50;9.95;;;;;;;4.48;65.23;101117.48;1694787;84;21027;-69
2022/04/18 04:54:23;;;;;;;22.32;11.00;;;;;;;4.60;65.04;101118.84;1707658;83;21070;-69
2022/04/18 04:56:49;;;;;;;16.40;10.65;;;;;;;4.63;64.87;101115.97;1697734;83;21069;-69
2022/04/18 04:59:15;;;;;;;21.50;9.50;;;;;;;4.77;64.77;101121.06;1704210;83;21051;-69
2022/04/18 05:01:41;;;;;;;17.60;9.75;;;;;;;5.07;64.59;101116.09;1708731;83;21053;-70
2022/04/18 05:04:09;;;;;;;15.83;9.53;;;;;;;5.21;64.28;101119.84;1696908;83;21017;-69
2022/04/18 05:06:35;;;;;;;23.67;11.78;;;;;;;5.24;64.05;101118.28;1729909;81;21070;-69
2022/04/18 05:09:01;;;;;;;16.97;10.08;;;;;;;5.11;63.88;101116.70;1742114;81;21151;-69
2022/04/18 05:11:27;;;;;;;20.45;12.15;;;;;;;5.09;63.60;101119.48;1742756;81;21015;-69
2022/04/18 05:13:53;;;;;;;23.55;12.80;;;;;;;5.11;63.34;101114.06;1737385;81;21074;-69
2022/04/18 05:16:19;;;;;;;17.82;10.88;;;;;;;4.92;63.18;101119.45;1727816;81;21055;-70
2022/04/18 05:18:45;;;;;;;20.25;10.43;;;;;;;4.71;63.05;101122.86;1723704;83;21075;-70
2022/04/18 05:21:11;;;;;;;15.55;8.75;;;;;;;4.78;63.04;101122.77;1704534;83;21116;-70
2022/04/18 05:23:38;;;;;;;16.30;8.80;;;;;;;4.88;62.91;101129.04;1724180;82;21008;-69
2022/04/18 05:26:03;;;;;;;32.38;15.10;;;;;;;4.98;62.86;101126.91;1723978;83;21012;-70
2022/04/18 05:28:30;;;;;;;27.45;11.60;;;;;;;4.86;62.81;101121.69;1723937;81;21404;-69
2022/04/18 05:30:56;;;;;;;27.82;11.22;;;;;;;4.84;62.72;101120.97;1708185;83;21023;-70
2022/04/18 05:33:23;;;;;;;23.27;10.98;;;;;;;4.92;62.60;101117.28;1687951;83;21170;-69
2022/04/18 05:35:50;;;;;;;32.85;13.70;;;;;;;5.16;62.52;101118.05;1734652;82;21027;-70
2022/04/18 05:38:16;;;;;;;27.58;12.90;;;;;;;5.62;62.41;101114.48;1734559;82;21517;-70
2022/04/18 05:40:42;;;;;;;28.42;13.60;;;;;;;6.06;62.24;101113.12;1734324;82;21017;-70
2022/04/18 05:43:08;;;;;;;27.65;11.88;;;;;;;6.44;62.05;101109.52;1734470;81;20903;-70
2022/04/18 05:45:36;;;;;;;16.42;8.10;;;;;;;6.75;61.87;101110.98;1755235;81;21118;-70
2022/04/18 05:48:03;;;;;;;20.92;10.48;;;;;;;6.95;61.63;101110.14;1752503;81;21061;-70
2022/04/18 05:50:29;;;;;;;18.87;12.73;;;;;;;7.01;61.38;101113.59;1733378;82;21062;-70
2022/04/18 05:52:55;;;;;;;12.70;7.45;;;;;;;7.21;61.18;101114.09;1733866;82;21054;-70
2022/04/18 05:55:22;;;;;;;11.40;7.03;;;;;;;7.19;60.90;101112.04;1753028;81;21065;-71
2022/04/18 05:57:52;;;;;;;9.20;5.62;;;;;;;7.10;60.59;101110.19;1755015;81;21487;-70
2022/04/18 06:00:19;;;;;;;;;;;;;;;7.04;60.28;101126.11;1754291;81;20990;-71
2022/04/18 06:02:45;;;;;;;10.65;6.05;;;;;;;7.01;59.98;101118.41;1716018;83;20195;-71
2022/04/18 06:05:11;;;;;;;9.78;5.53;;;;;;;7.08;59.78;101110.78;1753999;81;21006;-71
2022/04/18 06:07:39;;;;;;;8.88;6.03;;;;;;;7.16;59.49;101118.94;1693275;83;21045;-70
2022/04/18 06:10:06;;;;;;;12.15;5.92;;;;;;;7.19;59.22;101117.34;1734016;81;21062;-71
2022/04/18 06:12:32;;;;;;;9.43;5.65;;;;;;;7.21;58.93;101107.46;1709084;82;21059;-71
2022/04/18 06:14:58;;;;;;;9.90;5.65;;;;;;;7.16;58.65;101114.95;1717353;83;20943;-70
2022/04/18 06:17:24;;;;;;;9.20;5.80;;;;;;;7.13;58.39;101114.38;1713557;82;21051;-70
2022/04/18 06:19:50;;;;;;;10.90;6.03;;;;;;;7.11;58.11;101108.37;1713729;82;21411;-70
2022/04/18 06:22:20;;;;;;;10.15;5.58;;;;;;;7.11;57.96;101101.23;1711204;83;21201;-71
2022/04/18 06:24:44;;;;;;;13.55;7.08;;;;;;;7.20;57.69;101113.73;1692544;83;21053;-71
2022/04/18 06:27:10;;;;;;;9.00;5.58;;;;;;;7.36;57.52;101110.59;1706479;83;21073;-71
2022/04/18 06:29:37;;;;;;;9.33;6.35;;;;;;;7.47;57.29;101107.38;1705984;84;21032;-71
2022/04/18 06:32:04;;;;;;;10.80;6.15;;;;;;;7.49;57.06;101112.05;1707203;83;21139;-71
2022/04/18 06:34:30;;;;;;;14.58;6.62;;;;;;;7.72;56.94;101108.73;1693882;84;21155;-70
2022/04/18 06:36:56;;;;;;;12.23;7.03;;;;;;;7.87;56.74;101107.88;1700515;83;21042;-70
2022/04/18 06:39:22;;;;;;;10.95;6.62;;;;;;;7.76;56.43;101104.00;1693875;83;21027;-71
2022/04/18 06:41:48;;;;;;;10.93;6.90;;;;;;;7.73;56.31;101113.56;1693705;84;21621;-70
2022/04/18 06:44:14;;;;;;;9.40;6.50;;;;;;;7.91;56.19;101106.64;1693966;84;20995;-70
2022/04/18 06:46:41;;;;;;;15.53;7.62;;;;;;;8.14;56.02;101112.06;1705146;83;21170;-70
2022/04/18 06:49:06;;;;;;;13.50;6.45;;;;;;;8.24;55.79;101115.58;1694015;84;21014;-70
2022/04/18 06:51:32;;;;;;;11.95;6.72;;;;;;;8.34;55.57;101117.79;1696928;83;21730;-70
2022/04/18 06:53:59;;;;;;;10.95;6.72;;;;;;;8.32;55.42;101109.13;1712345;83;21036;-70
2022/04/18 06:59:09;;;;;;;9.13;6.28;;;;;;;8.29;55.08;101115.20;1712517;83;21122;-70
2022/04/18 07:01:35;;;;;;;11.88;7.10;;;;;;;8.31;54.91;101117.23;1712750;83;21005;-70
2022/04/18 07:04:01;;;;;;;11.22;6.97;;;;;;;8.25;54.71;101107.97;1705933;84;21502;-70
2022/04/18 07:06:27;;;;;;;11.08;7.08;;;;;;;8.35;54.57;101100.88;1706035;84;20992;-70
2022/04/18 07:08:53;;;;;;;12.55;6.78;;;;;;;8.48;54.47;101100.11;1708137;83;21127;-70
2022/04/18 07:11:19;;;;;;;10.28;6.28;;;;;;;8.58;54.31;101097.96;1694139;84;22058;-70
2022/04/18 07:13:45;;;;;;;11.12;6.70;;;;;;;8.51;54.07;101102.48;1694177;84;21656;-70
2022/04/18 07:16:11;;;;;;;9.23;6.65;;;;;;;8.32;53.90;101102.97;1711349;83;21043;-71
2022/04/18 07:18:36;;;;;;;10.40;6.97;;;;;;;8.42;53.83;101109.97;1710792;82;20930;-70
2022/04/18 07:21:03;;;;;;;12.47;7.10;;;;;;;8.63;53.67;101109.84;1734219;82;21034;-70
2022/04/18 07:23:29;;;;;;;11.78;6.95;;;;;;;8.82;53.59;101107.19;1702113;83;21151;-70
2022/04/18 07:25:55;;;;;;;11.15;7.12;;;;;;;8.97;53.48;101110.26;1718913;83;21034;-70
2022/04/18 07:28:22;;;;;;;11.08;6.90;;;;;;;9.05;53.24;101107.70;1712885;83;21511;-71
2022/04/18 07:30:48;;;;;;;11.38;6.92;;;;;;;9.11;53.17;101115.14;1722808;83;21052;-70
2022/04/18 07:33:16;;;;;;;11.40;6.92;;;;;;;9.12;52.99;101114.62;1705091;83;20998;-70
2022/04/18 07:35:43;;;;;;;11.10;6.65;;;;;;;9.19;52.90;101117.06;1702019;83;21670;-71
2022/04/18 07:40:54;;;;;;;10.43;6.60;;;;;;;9.29;52.54;101108.06;1699252;84;21065;-71
2022/04/18 07:43:21;;;;;;;11.75;6.85;;;;;;;9.26;52.25;101109.69;1716713;83;21029;-70
2022/04/18 07:45:48;;;;;;;9.73;6.03;;;;;;;9.38;52.15;101107.22;1719048;83;21018;-70
2022/04/18 07:48:14;;;;;;;11.18;6.22;;;;;;;9.46;51.97;101109.97;1709897;82;21154;-71
2022/04/18 07:53:24;;;;;;;9.98;6.25;;;;;;;9.79;51.58;101103.27;1732805;82;20988;-71
2022/04/18 07:55:50;;;;;;;9.73;5.90;;;;;;;9.64;51.40;101106.57;1712621;82;21619;-70
2022/04/18 07:58:16;;;;;;;12.15;6.08;;;;;;;9.73;51.25;101100.35;1694287;84;21098;-71
2022/04/18 08:00:42;;;;;;;9.23;6.05;;;;;;;9.75;51.02;101099.70;1745914;81;21062;-71
2022/04/18 08:03:09;;;;;;;8.48;6.40;;;;;;;9.67;50.91;101103.61;1744009;81;21077;-71
2022/04/18 08:05:35;;;;;;;10.60;6.67;;;;;;;9.86;50.86;101098.17;1737119;81;21506;-71
2022/04/18 08:08:01;;;;;;;8.68;5.87;;;;;;;10.10;50.74;101098.45;1712031;83;21028;-71
2022/04/18 08:10:27;;;;;;;9.15;6.25;;;;;;;10.27;50.59;101103.03;1731892;82;21646;-71
2022/04/18 08:12:53;;;;;;;10.85;6.53;;;;;;;10.32;50.38;101103.41;1734508;81;21895;-71
2022/04/18 08:15:19;;;;;;;8.43;5.70;;;;;;;10.31;50.28;101101.72;1751067;81;21100;-71
2022/04/18 08:17:45;;;;;;;10.48;6.20;;;;;;;10.44;50.19;101092.88;1729902;81;21050;-71
2022/04/18 08:20:11;;;;;;;9.15;6.03;;;;;;;10.60;50.06;101098.00;1706892;82;21497;-72
2022/04/18 08:22:38;;;;;;;7.95;5.90;;;;;;;10.58;49.91;101099.99;1694496;83;21597;-72
2022/04/18 08:25:05;;;;;;;8.85;6.03;;;;;;;10.66;49.87;101090.73;1710118;83;21871;-72
2022/04/18 08:27:31;;;;;;;10.43;6.00;;;;;;;10.78;49.76;101093.49;1714049;83;21074;-71
2022/04/18 08:29:57;;;;;;;8.98;6.15;;;;;;;10.83;49.61;101088.55;1715482;82;20888;-72
2022/04/18 08:32:23;;;;;;;13.32;7.40;;;;;;;11.02;49.56;101084.34;1727752;82;21137;-71
2022/04/18 08:34:49;;;;;;;11.85;6.92;;;;;;;11.14;49.36;101082.26;1694213;83;21074;-71
2022/04/18 08:37:15;;;;;;;9.18;6.03;;;;;;;11.03;49.18;101082.02;1749390;81;21162;-71
2022/04/18 08:39:41;;;;;;;9.35;5.75;;;;;;;10.97;48.95;101081.31;1751258;81;21073;-71
2022/04/18 08:42:07;;;;;;;10.40;6.75;;;;;;;10.86;48.73;101080.23;1751412;81;20931;-71
2022/04/18 08:44:34;;;;;;;12.23;6.08;;;;;;;10.76;48.47;101083.48;1738295;81;21010;-72
2022/04/18 08:47:00;;;;;;;9.90;6.20;;;;;;;10.75;48.38;101073.30;1692674;84;21021;-72
2022/04/18 08:54:56;;;;;;;8.03;5.90;;;;;;;11.08;47.89;101085.07;1702949;83;21086;-71
2022/04/18 08:57:22;;;;;;;10.58;6.00;;;;;;;10.99;47.66;101081.49;1691274;84;21107;-71
2022/04/18 08:59:48;;;;;;;7.58;5.70;;;;;;;11.09;47.57;101077.37;1692373;84;21047;-71
2022/04/18 09:02:14;;;;;;;8.38;5.78;;;;;;;11.21;47.52;101080.14;1714933;83;21153;-71
2022/04/18 09:04:40;;;;;;;8.03;5.65;;;;;;;11.13;47.17;101070.73;1712103;82;21060;-71
2022/04/18 09:07:10;;;;;;;11.65;5.92;;;;;;;11.09;47.10;101064.03;1711058;83;21103;-71
2022/04/18 09:09:37;;;;;;;8.35;5.50;;;;;;;11.21;46.85;101060.13;1684029;82;21032;-71
2022/04/18 09:12:07;;;;;;;10.93;6.28;;;;;;;11.05;46.43;101064.00;1704243;83;21006;-71
2022/04/18 09:14:34;;;;;;;9.63;6.12;;;;;;;10.99;46.38;101059.30;1699760;82;21147;-71
2022/04/18 09:17:01;;;;;;;10.30;5.40;;;;;;;11.06;46.21;101058.17;1692805;83;21120;-71
2022/04/18 09:19:27;;;;;;;8.48;5.92;;;;;;;11.19;46.10;101058.09;1693278;84;21490;-71
2022/04/18 09:21:59;;;;;;;9.95;5.75;;;;;;;11.29;45.98;101051.33;1659568;84;21463;-70
2022/04/18 09:24:32;;;;;;;10.30;6.53;;;;;;;11.37;45.80;101056.69;1704216;83;21492;-71
2022/04/18 09:27:29;;;;;;;9.13;6.50;;;;;;;11.40;45.64;101049.20;1694565;82;21999;-71
2022/04/18 09:30:07;;;;;;;8.20;6.40;;;;;;;11.31;45.46;101040.81;1703212;82;21018;-71
2022/04/18 09:32:34;;;;;;;7.58;5.75;;;;;;;11.35;45.22;101039.51;1693715;83;21063;-71
2022/04/18 09:35:05;;;;;;;7.42;6.03;;;;;;;11.33;45.07;101037.48;1701122;83;21019;-71
2022/04/18 09:37:31;;;;;;;9.43;6.60;;;;;;;11.42;44.95;101032.53;1701796;83;21017;-71
2022/04/18 09:39:57;;;;;;;9.15;6.28;;;;;;;11.42;44.79;101032.53;1700617;83;21492;-70
2022/04/18 09:42:27;;;;;;;8.10;6.33;;;;;;;11.59;44.68;101039.27;1703748;83;21040;-71
2022/04/18 09:44:53;;;;;;;9.08;6.33;;;;;;;11.57;44.55;101035.94;1702319;83;21034;-71
2022/04/18 09:47:22;;;;;;;9.03;6.10;;;;;;;11.39;44.34;101030.19;1693013;84;21014;-71
2022/04/18 09:49:49;;;;;;;10.68;6.60;;;;;;;11.42;44.21;101021.84;1695425;83;21354;-71
2022/04/18 09:52:17;;;;;;;11.10;6.10;;;;;;;11.52;44.11;101027.06;1697301;83;21183;-70
2022/04/18 09:54:53;;;;;;;11.78;7.50;;;;;;;11.54;43.98;101019.21;1693721;82;21035;-70
2022/04/18 09:57:28;;;;;;;11.68;6.45;;;;;;;11.66;43.90;101016.25;1691335;83;21064;-71
2022/04/18 09:59:57;;;;;;;7.42;5.58;;;;;;;11.74;43.65;101009.64;1706262;83;21010;-71
2022/04/18 10:02:24;;;;;;;8.50;5.87;;;;;;;11.73;43.48;101013.30;1712408;83;21029;-70
2022/04/18 10:04:51;;;;;;;8.78;6.05;;;;;;;11.76;43.34;101010.30;1696518;82;21811;-71
2022/04/18 10:07:17;;;;;;;9.18;5.62;;;;;;;11.69;43.15;101009.25;1705695;82;21053;-71
2022/04/18 10:09:43;;;;;;;6.42;5.42;;;;;;;11.74;43.09;101004.30;1727151;81;21019;-70
2022/04/18 10:12:11;;;;;;;9.03;5.90;;;;;;;11.80;42.78;101007.65;1729451;82;20911;-70
2022/04/18 10:14:38;;;;;;;6.92;5.55;;;;;;;11.90;42.54;100997.16;1735184;82;21106;-71
2022/04/18 10:17:06;;;;;;;7.62;5.33;;;;;;;11.76;42.19;100991.59;1730186;82;21187;-71
2022/04/18 10:20:10;;;;;;;7.95;4.45;;;;;;;11.62;42.06;100991.70;1724731;81;21491;-71
2022/04/18 10:22:49;;;;;;;8.05;5.28;;;;;;;11.65;41.90;100984.69;1721209;83;21017;-71
2022/04/18 10:26:04;;;;;;;7.87;4.63;;;;;;;11.80;41.54;100991.61;1729193;81;21056;-72
2022/04/18 10:28:36;;;;;;;8.30;5.12;;;;;;;11.75;41.32;100983.27;1713024;83;21009;-71
2022/04/18 10:31:05;;;;;;;9.75;5.67;;;;;;;11.87;41.23;100985.95;1719531;83;21098;-71
2022/04/18 10:33:31;;;;;;;6.50;4.70;;;;;;;11.95;41.13;100979.30;1684276;85;20988;-72
2022/04/18 10:36:02;;;;;;;7.65;5.12;;;;;;;12.04;41.13;100970.27;1706928;82;20876;-72
2022/04/18 10:38:37;;;;;;;8.23;5.20;;;;;;;12.11;40.97;100985.98;1687281;83;21089;-72
2022/04/18 10:41:16;;;;;;;7.45;5.42;;;;;;;12.14;40.82;100980.30;1723391;81;21019;-72
2022/04/18 10:43:58;;;;;;;6.07;4.97;;;;;;;12.22;40.74;100972.30;1741757;82;21895;-71
2022/04/18 10:46:24;;;;;;;6.83;4.40;;;;;;;12.07;40.43;100965.92;1689931;83;22534;-71
2022/04/18 10:49:03;;;;;;;9.20;5.05;;;;;;;12.06;40.44;100966.11;1683629;85;21977;-71
2022/04/18 10:51:36;;;;;;;6.20;4.60;;;;;;;12.15;40.30;100973.13;1703994;81;21066;-71
2022/04/18 10:54:17;;;;;;;5.45;4.33;;;;;;;12.11;40.09;100961.92;1720855;82;21019;-71
2022/04/18 10:57:01;;;;;;;6.75;4.15;;;;;;;12.25;40.02;100962.60;1725318;81;21283;-70
2022/04/18 10:59:36;;;;;;;5.83;4.05;;;;;;;12.27;39.77;100958.44;1702520;81;21085;-70
2022/04/18 11:02:06;;;;;;;5.35;4.22;;;;;;;12.30;39.59;100964.28;1716252;83;21017;-71
2022/04/18 11:04:47;;;;;;;6.92;4.03;;;;;;;12.33;39.39;100953.25;1721406;81;21539;-71
2022/04/18 11:07:14;;;;;;;6.58;4.65;;;;;;;12.48;39.37;100954.26;1721831;81;21526;-71
2022/04/18 11:09:46;;;;;;;5.58;3.77;;;;;;;12.70;39.30;100957.23;1683447;85;21059;-71
2022/04/18 11:12:13;;;;;;;6.47;3.72;;;;;;;12.63;39.06;100949.03;1702876;83;21086;-71
2022/04/18 11:15:03;;;;;;;5.75;3.83;;;;;;;12.60;38.80;100940.50;1699704;83;21057;-71
2022/04/18 11:17:38;;;;;;;6.05;3.95;;;;;;;12.46;38.55;100938.86;1719945;83;21074;-71
2022/04/18 11:20:31;;;;;;;6.97;4.25;;;;;;;12.43;38.43;100940.53;1714735;82;21072;-71
2022/04/18 11:23:22;;;;;;;6.58;4.40;;;;;;;12.40;38.23;100947.56;1732697;81;21336;-71
2022/04/18 11:26:01;;;;;;;6.12;4.30;;;;;;;12.23;37.94;100939.22;1708111;82;21555;-70
2022/04/18 11:28:34;;;;;;;8.00;4.70;;;;;;;12.26;37.76;100943.39;1696819;83;21038;-71
2022/04/18 11:31:01;;;;;;;10.78;4.28;;;;;;;12.17;37.64;100941.23;1737018;81;21030;-71
2022/04/18 11:33:27;;;;;;;6.97;4.05;;;;;;;12.30;37.71;100936.20;1731058;81;21076;-72
2022/04/18 11:36:01;;;;;;;7.42;4.60;;;;;;;12.31;37.64;100929.02;1728931;82;21149;-71
2022/04/18 11:38:29;;;;;;;8.63;4.35;;;;;;;12.42;37.65;100921.47;1731473;81;21545;-71
2022/04/18 11:40:54;;;;;;;5.10;4.33;;;;;;;12.39;37.56;100929.83;1736974;81;21013;-71
2022/04/18 11:43:21;;;;;;;5.42;4.25;;;;;;;12.34;37.47;100925.52;1694746;82;21066;-71
2022/04/18 11:45:47;;;;;;;8.08;4.30;;;;;;;12.27;37.36;100919.16;1728499;81;21056;-71
2022/04/18 11:48:13;;;;;;;7.17;3.87;;;;;;;12.25;37.26;100917.14;1694253;83;21159;-71
2022/04/18 11:50:42;;;;;;;5.53;3.40;;;;;;;12.13;37.14;100909.14;1726696;83;21061;-71
2022/04/18 11:53:09;;;;;;;8.58;3.95;;;;;;;12.24;37.15;100907.97;1728760;83;21066;-71